Time;durP1;ratioP1;P1;durP2;ratioP2;P2;SDS_P1;SDS_P2;PMS_P1;PMS_P2;Temp;Humidity;BMP_temperature;BMP_pressure;BME280_temperature;BME280_humidity;BME280_pressure;Samples;Min_cycle;Max_cycle;Signal;HPM_P1;HPM_P2
2021/07/29 00:00:01;;;;;;;17.83;6.18;;;;;;;23.67;69.72;100302.97;5037082;28;20499;-73
2021/07/29 00:03:06;;;;;;;13.13;6.57;;;;;;;23.66;69.40;100309.50;5037380;28;20515;-79
2021/07/29 00:06:15;;;;;;;12.80;6.15;;;;;;;23.58;69.45;100298.78;5037063;28;20049;-78
2021/07/29 00:09:19;;;;;;;15.88;6.18;;;;;;;23.54;69.21;100311.28;5037017;28;20587;-74
2021/07/29 00:12:24;;;;;;;13.60;6.57;;;;;;;23.53;68.91;100295.88;5036933;28;20491;-78
2021/07/29 00:15:28;;;;;;;11.32;6.45;;;;;;;23.46;69.08;100297.81;5058991;28;20064;-76
2021/07/29 00:21:55;;;;;;;9.10;5.97;;;;;;;23.46;68.72;100297.81;5036235;28;20068;-79
2021/07/29 00:25:00;;;;;;;15.00;6.43;;;;;;;23.58;69.23;100296.06;5035768;28;20067;-74
2021/07/29 00:28:05;;;;;;;14.07;6.82;;;;;;;23.64;69.10;100302.56;5036708;28;20045;-79
2021/07/29 00:31:09;;;;;;;13.45;7.22;;;;;;;23.51;69.51;100286.19;5036910;28;20396;-77
2021/07/29 00:34:13;;;;;;;13.65;6.72;;;;;;;23.44;69.61;100293.63;5036817;28;20052;-78
2021/07/29 00:37:17;;;;;;;14.77;6.35;;;;;;;23.38;69.46;100289.84;5036515;28;20056;-79
2021/07/29 00:40:28;;;;;;;10.23;6.25;;;;;;;23.32;69.53;100293.44;5036628;28;20072;-75
2021/07/29 00:43:32;;;;;;;12.20;6.07;;;;;;;23.24;69.87;100290.94;5036658;28;20060;-78
2021/07/29 00:46:37;;;;;;;13.70;6.50;;;;;;;23.23;69.90;100294.75;5036615;28;20056;-79
2021/07/29 00:49:41;;;;;;;16.38;7.20;;;;;;;23.19;69.69;100293.50;5035784;28;20393;-78
2021/07/29 00:52:49;;;;;;;12.70;6.00;;;;;;;23.17;69.58;100295.63;5036257;28;20052;-74
2021/07/29 00:55:54;;;;;;;12.82;6.25;;;;;;;23.16;70.06;100289.31;5036102;28;20388;-75
2021/07/29 00:58:59;;;;;;;17.77;7.20;;;;;;;23.14;69.69;100285.09;5036312;28;20049;-79
2021/07/29 01:02:03;;;;;;;13.75;6.68;;;;;;;23.12;69.81;100293.53;5035672;28;20056;-79
2021/07/29 01:05:08;;;;;;;12.27;6.10;;;;;;;23.11;69.81;100293.75;5036255;28;20048;-79
2021/07/29 01:08:12;;;;;;;12.80;6.00;;;;;;;23.07;69.86;100290.63;5036149;28;20049;-78
2021/07/29 01:11:16;;;;;;;14.85;6.03;;;;;;;23.03;70.24;100289.38;5035860;28;20068;-79
2021/07/29 01:14:21;;;;;;;14.52;6.05;;;;;;;23.03;70.34;100289.38;5034970;28;20048;-78
2021/07/29 01:17:26;;;;;;;18.80;6.20;;;;;;;22.99;70.14;100277.16;5035715;28;20048;-79
2021/07/29 01:20:31;;;;;;;10.88;6.55;;;;;;;22.98;70.01;100283.72;5035809;28;20044;-76
2021/07/29 01:23:36;;;;;;;13.90;5.80;;;;;;;22.98;69.99;100280.13;5035593;28;20049;-79
2021/07/29 01:26:41;;;;;;;16.85;6.53;;;;;;;22.94;70.41;100279.69;5035246;28;20117;-78
2021/07/29 01:29:47;;;;;;;16.90;6.57;;;;;;;22.98;70.00;100282.84;5035722;28;20377;-79
2021/07/29 01:32:51;;;;;;;11.00;6.40;;;;;;;22.80;70.55;100272.59;5035436;28;20388;-78
2021/07/29 01:35:55;;;;;;;13.15;6.40;;;;;;;22.83;70.18;100271.34;5035041;28;20056;-79
2021/07/29 01:39:00;;;;;;;14.68;6.65;;;;;;;22.78;70.08;100277.47;5035635;28;20516;-78
2021/07/29 01:42:05;;;;;;;8.90;6.00;;;;;;;22.75;70.08;100282.50;5035279;28;20392;-79
2021/07/29 01:45:10;;;;;;;13.93;6.40;;;;;;;22.73;69.83;100288.22;5035480;28;20056;-77
2021/07/29 01:48:14;;;;;;;11.25;5.75;;;;;;;22.72;69.86;100288.41;5035472;28;20057;-79
2021/07/29 01:51:18;;;;;;;12.43;5.90;;;;;;;22.71;69.66;100287.59;5035133;28;20052;-79
2021/07/29 01:54:23;;;;;;;10.32;5.45;;;;;;;22.76;69.32;100281.47;5035052;28;20052;-78
2021/07/29 01:57:27;;;;;;;11.63;6.00;;;;;;;22.63;69.52;100280.44;5035288;28;20381;-78
2021/07/29 02:00:32;;;;;;;9.88;5.65;;;;;;;22.52;69.80;100286.53;5035162;28;20064;-76
2021/07/29 02:03:38;;;;;;;10.10;5.28;;;;;;;22.44;69.92;100294.97;5035157;28;20056;-79
2021/07/29 02:06:43;;;;;;;10.35;5.45;;;;;;;22.43;69.94;100276.88;5034825;28;20060;-78
2021/07/29 02:09:56;;;;;;;15.27;6.28;;;;;;;22.46;70.08;100286.56;5035036;28;20060;-74
2021/07/29 02:13:02;;;;;;;10.93;5.93;;;;;;;22.44;70.26;100288.66;5034672;28;20041;-78
2021/07/29 02:16:11;;;;;;;12.73;5.60;;;;;;;22.46;70.06;100287.41;5034416;28;20049;-79
2021/07/29 02:19:16;;;;;;;12.23;6.05;;;;;;;22.44;69.97;100278.53;5034285;28;20045;-76
2021/07/29 02:22:21;;;;;;;15.07;6.95;;;;;;;22.44;70.17;100291.41;5034513;28;20060;-79
2021/07/29 02:25:25;;;;;;;9.95;5.28;;;;;;;22.49;69.74;100284.22;5034742;28;20381;-75
2021/07/29 02:28:29;;;;;;;8.30;4.80;;;;;;;22.49;70.03;100283.41;5034144;28;20056;-79
2021/07/29 02:31:34;;;;;;;9.40;5.47;;;;;;;22.40;70.23;100285.50;5034376;28;20508;-79
2021/07/29 02:34:38;;;;;;;9.75;6.13;;;;;;;22.40;69.79;100281.91;5034570;28;20397;-75
2021/07/29 02:37:43;;;;;;;10.60;5.50;;;;;;;22.39;69.93;100285.72;5034528;28;20499;-78
2021/07/29 02:40:47;;;;;;;12.55;5.55;;;;;;;22.33;70.02;100287.41;5034186;28;20052;-79
2021/07/29 02:43:51;;;;;;;14.68;6.80;;;;;;;22.34;69.78;100283.63;5034170;28;20049;-78
2021/07/29 02:46:56;;;;;;;13.80;5.97;;;;;;;22.33;70.25;100289.31;5034018;28;20380;-79
2021/07/29 02:50:00;;;;;;;11.23;5.82;;;;;;;22.40;69.96;100290.97;5033570;28;20072;-78
2021/07/29 02:53:05;;;;;;;10.85;5.90;;;;;;;22.44;69.85;100294.97;5034057;28;20388;-78
2021/07/29 02:56:09;;;;;;;12.35;6.10;;;;;;;22.43;69.43;100298.75;5034343;28;20053;-79
2021/07/29 02:59:13;;;;;;;13.10;5.43;;;;;;;22.38;69.76;100298.56;5033970;28;20060;-79
2021/07/29 03:02:18;;;;;;;9.68;5.80;;;;;;;22.30;69.71;100300.66;5033995;28;20044;-78
2021/07/29 03:05:22;;;;;;;8.88;5.03;;;;;;;22.29;69.69;100304.47;5033232;28;20048;-75
2021/07/29 03:08:27;;;;;;;10.88;5.57;;;;;;;22.34;69.77;100304.66;5034124;28;20056;-78
2021/07/29 03:11:31;;;;;;;10.13;5.68;;;;;;;22.34;69.84;100313.72;5033940;28;20049;-79
2021/07/29 03:14:35;;;;;;;10.05;5.22;;;;;;;22.48;69.28;100312.66;5034174;28;20053;-79
2021/07/29 03:17:40;;;;;;;9.60;5.70;;;;;;;22.65;68.76;100313.91;5034143;28;20060;-74
2021/07/29 03:20:45;;;;;;;10.73;5.18;;;;;;;22.77;68.71;100321.44;5033774;28;20048;-74
2021/07/29 03:23:49;;;;;;;10.95;5.80;;;;;;;22.90;68.42;100326.91;5033280;28;20044;-79
2021/07/29 03:26:53;;;;;;;10.32;5.03;;;;;;;22.93;67.88;100324.59;5033775;28;20057;-78
2021/07/29 03:29:58;;;;;;;11.77;5.57;;;;;;;22.99;67.99;100322.84;5033746;28;20077;-79
2021/07/29 03:33:05;;;;;;;11.07;6.25;;;;;;;23.05;68.22;100333.81;5034024;28;20397;-75
2021/07/29 03:36:09;;;;;;;18.23;5.63;;;;;;;22.91;69.16;100339.53;5033430;28;20495;-79
2021/07/29 03:39:14;;;;;;;13.00;6.75;;;;;;;22.85;69.87;100338.50;5033748;28;20048;-79
2021/07/29 03:42:22;;;;;;;11.10;6.22;;;;;;;22.78;70.50;100334.94;5033619;28;20056;-79
2021/07/29 03:45:26;;;;;;;15.95;6.90;;;;;;;22.84;70.20;100333.25;5033653;28;20060;-79
2021/07/29 03:48:30;;;;;;;9.32;6.30;;;;;;;22.85;70.36;100335.75;5033094;28;20061;-79
2021/07/29 03:51:34;;;;;;;12.02;6.50;;;;;;;22.86;69.81;100336.59;5033841;28;20053;-76
2021/07/29 03:54:39;;;;;;;9.30;6.78;;;;;;;22.89;69.73;100337.00;5033786;28;20483;-79
2021/07/29 03:57:43;;;;;;;10.68;6.93;;;;;;;22.91;69.89;100339.53;5033428;28;20044;-78
2021/07/29 04:00:47;;;;;;;12.02;6.93;;;;;;;22.94;70.05;100339.94;5037068;28;20048;-79
2021/07/29 04:03:52;;;;;;;13.05;6.60;;;;;;;22.93;69.12;100337.44;5037024;28;20048;-78
2021/07/29 04:06:56;;;;;;;13.88;6.25;;;;;;;22.96;68.88;100347.94;5036991;28;20072;-79
2021/07/29 04:10:01;;;;;;;11.57;6.38;;;;;;;23.09;68.39;100350.63;5037004;28;20052;-78
2021/07/29 04:13:05;;;;;;;9.95;6.63;;;;;;;23.04;69.28;100356.75;5037235;28;20056;-79
2021/07/29 04:16:11;;;;;;;11.73;6.20;;;;;;;23.10;68.85;100355.06;5037152;28;20060;-74
2021/07/29 04:19:15;;;;;;;13.88;6.90;;;;;;;23.17;68.98;100350.41;5036826;28;20099;-78
2021/07/29 04:22:19;;;;;;;12.32;7.20;;;;;;;23.16;68.43;100354.19;5036496;28;20063;-74
2021/07/29 04:25:23;;;;;;;14.88;7.00;;;;;;;23.17;68.63;100355.88;5036978;28;20049;-79
2021/07/29 04:28:28;;;;;;;12.02;7.00;;;;;;;23.30;68.26;100355.84;5036927;28;20048;-79
2021/07/29 04:31:32;;;;;;;11.88;6.28;;;;;;;23.41;68.28;100354.31;5036866;28;20068;-78
2021/07/29 04:34:38;;;;;;;11.25;6.57;;;;;;;23.46;67.93;100358.09;5036835;28;20044;-79
2021/07/29 04:37:42;;;;;;;10.05;6.10;;;;;;;23.44;67.42;100354.75;5036441;28;20052;-77
2021/07/29 04:40:47;;;;;;;15.55;5.78;;;;;;;23.46;66.98;100357.25;5036434;28;20057;-79
2021/07/29 04:43:52;;;;;;;10.48;5.43;;;;;;;23.49;65.93;100356.81;5036387;28;20060;-74
2021/07/29 04:46:57;;;;;;;10.85;6.57;;;;;;;23.69;65.67;100352.94;5036326;28;20491;-79
2021/07/29 04:50:01;;;;;;;10.27;5.50;;;;;;;24.06;65.23;100351.22;5034924;28;20407;-78
2021/07/29 04:53:05;;;;;;;10.30;5.47;;;;;;;24.51;63.89;100354.69;5036484;28;20112;-74
2021/07/29 04:56:10;;;;;;;11.55;5.88;;;;;;;24.91;62.99;100361.47;5036116;28;20055;-78
2021/07/29 04:59:14;;;;;;;10.30;5.50;;;;;;;25.33;61.37;100354.22;5036343;28;20048;-80
2021/07/29 05:02:19;;;;;;;13.35;5.57;;;;;;;25.76;60.53;100359.59;5035366;28;20052;-79
2021/07/29 05:05:23;;;;;;;7.03;4.78;;;;;;;26.37;58.39;100362.91;5036206;28;20056;-79
2021/07/29 05:08:27;;;;;;;11.02;6.03;;;;;;;26.93;56.00;100358.78;5035949;28;20056;-80
2021/07/29 05:11:31;;;;;;;29.30;26.30;;;;;;;27.15;54.53;100359.84;5035597;28;20052;-80
2021/07/29 05:14:36;;;;;;;50.55;43.47;;;;;;;27.42;53.39;100369.28;5035812;28;20041;-81
2021/07/29 05:17:40;;;;;;;17.25;9.70;;;;;;;28.20;51.59;100363.06;5035995;28;20057;-79
2021/07/29 05:20:45;;;;;;;8.45;4.90;;;;;;;27.96;52.03;100367.84;5035677;28;20116;-74
2021/07/29 05:23:49;;;;;;;13.88;5.45;;;;;;;28.01;51.44;100373.50;5035900;28;20056;-80
2021/07/29 05:26:53;;;;;;;18.27;5.70;;;;;;;28.61;49.99;100362.72;5035302;28;20048;-78
2021/07/29 05:29:58;;;;;;;11.73;5.50;;;;;;;29.49;47.70;100367.28;5035606;28;20048;-80
2021/07/29 05:33:04;;;;;;;11.25;5.05;;;;;;;30.31;45.56;100364.31;5035052;28;20526;-74
2021/07/29 05:36:09;;;;;;;11.52;5.18;;;;;;;30.86;43.73;100367.56;5034690;28;20499;-80
2021/07/29 05:39:13;;;;;;;14.18;5.00;;;;;;;31.63;42.36;100366.91;5035616;28;20076;-79
2021/07/29 05:42:23;;;;;;;10.35;4.10;;;;;;;32.35;40.78;100364.84;5057494;28;20061;-80
2021/07/29 05:45:34;;;;;;;13.23;4.45;;;;;;;33.43;39.08;100362.47;5035514;28;20056;-80
2021/07/29 05:48:39;;;;;;;10.13;4.30;;;;;;;33.76;37.98;100358.19;5035262;28;20056;-77
2021/07/29 05:51:44;;;;;;;9.48;4.60;;;;;;;34.45;36.53;100360.78;5035346;28;20060;-78
2021/07/29 05:54:48;;;;;;;13.27;4.82;;;;;;;35.40;35.30;100367.41;5035155;28;20048;-80
2021/07/29 05:57:53;;;;;;;14.68;4.50;;;;;;;36.58;33.43;100371.03;5034806;28;20060;-81
2021/07/29 06:00:58;;;;;;;6.80;3.42;;;;;;;37.97;30.93;100370.56;5035168;28;20381;-79
2021/07/29 06:04:02;;;;;;;7.53;3.47;;;;;;;38.70;29.46;100378.59;5035031;28;20058;-73
2021/07/29 06:07:07;;;;;;;12.25;3.95;;;;;;;39.58;28.99;100383.19;5034971;28;20056;-79
2021/07/29 06:10:27;;;;;;;9.82;4.10;;;;;;;41.27;26.78;100377.06;5034731;28;20057;-74
2021/07/29 06:13:31;;;;;;;8.30;4.00;;;;;;;41.28;26.79;100370.31;5034873;28;20476;-80
2021/07/29 06:16:35;;;;;;;9.80;3.78;;;;;;;41.94;26.33;100376.22;5034316;28;20056;-80
2021/07/29 06:19:41;;;;;;;8.50;3.90;;;;;;;43.07;24.91;100380.53;5034783;28;20384;-76
2021/07/29 06:22:45;;;;;;;7.97;4.10;;;;;;;42.69;25.72;100384.41;5033634;28;20061;-79
2021/07/29 06:25:50;;;;;;;9.70;3.28;;;;;;;42.11;26.02;100387.41;5034230;28;20052;-78
2021/07/29 06:28:55;;;;;;;11.10;3.90;;;;;;;42.86;25.23;100385.41;5034548;28;20487;-80
2021/07/29 06:31:59;;;;;;;10.98;3.97;;;;;;;43.61;23.70;100393.31;5034528;28;20056;-79
2021/07/29 06:35:04;;;;;;;9.98;4.00;;;;;;;44.03;23.99;100385.41;5056372;28;20053;-79
2021/07/29 06:38:08;;;;;;;8.98;3.42;;;;;;;44.90;22.89;100391.25;5034442;28;20053;-80
2021/07/29 06:41:12;;;;;;;8.15;3.85;;;;;;;45.52;21.89;100396.16;5034536;28;20056;-75
2021/07/29 06:44:17;;;;;;;10.35;4.18;;;;;;;45.38;23.34;100393.81;5045005;28;20056;-80
2021/07/29 06:47:21;;;;;;;9.65;4.07;;;;;;;45.82;22.60;100388.81;5034255;28;20061;-75
2021/07/29 06:50:25;;;;;;;13.05;4.35;;;;;;;46.68;21.75;100386.66;5033526;28;20499;-81
2021/07/29 06:53:31;;;;;;;8.75;4.00;;;;;;;45.30;22.58;100393.97;5034012;28;20499;-78
2021/07/29 06:56:36;;;;;;;10.02;4.38;;;;;;;46.00;22.33;100384.38;5034360;28;20476;-76
2021/07/29 06:59:40;;;;;;;17.25;5.03;;;;;;;47.31;21.08;100393.59;5055986;28;20072;-78
2021/07/29 07:02:45;;;;;;;19.58;5.45;;;;;;;45.94;22.14;100391.53;5032959;28;20072;-75
2021/07/29 07:05:49;;;;;;;13.40;4.38;;;;;;;47.25;21.19;100382.91;5034151;28;20052;-79
2021/07/29 07:08:53;;;;;;;15.48;4.22;;;;;;;47.58;21.08;100400.19;5033103;28;20401;-80
2021/07/29 07:11:58;;;;;;;11.13;4.50;;;;;;;48.69;19.78;100387.16;5056025;28;20508;-75
2021/07/29 07:15:04;;;;;;;11.07;4.63;;;;;;;49.55;19.49;100393.34;5034158;28;20060;-77
2021/07/29 07:18:08;;;;;;;12.20;4.55;;;;;;;47.93;20.62;100397.06;5034138;28;20044;-80
2021/07/29 07:21:13;;;;;;;14.10;5.40;;;;;;;48.74;20.33;100399.00;5033779;28;20044;-79
2021/07/29 07:24:17;;;;;;;70.50;10.48;;;;;;;47.42;21.88;100399.47;5056264;28;20065;-80
2021/07/29 07:27:21;;;;;;;23.35;7.00;;;;;;;49.15;20.05;100402.72;5034027;28;20389;-80
2021/07/29 07:30:26;;;;;;;10.70;4.60;;;;;;;50.59;18.84;100405.84;5033535;28;20156;-80
2021/07/29 07:33:30;;;;;;;10.63;5.05;;;;;;;51.61;17.99;100393.75;5035701;28;20053;-80
2021/07/29 07:36:35;;;;;;;27.15;6.72;;;;;;;48.94;20.25;100401.69;5037502;28;20499;-80
2021/07/29 07:39:39;;;;;;;18.40;5.78;;;;;;;50.01;19.20;100393.66;5037636;28;20064;-80
2021/07/29 07:42:45;;;;;;;14.55;6.22;;;;;;;50.05;19.73;100394.53;5037409;28;20049;-76
2021/07/29 07:45:49;;;;;;;17.05;6.28;;;;;;;50.62;19.53;100395.66;5037524;28;20052;-81
2021/07/29 07:48:54;;;;;;;9.55;4.35;;;;;;;51.64;18.26;100397.84;5037174;28;21201;-76
2021/07/29 07:52:26;;;;;;;17.58;5.35;;;;;;;51.12;18.80;100379.41;5037149;28;20056;-79
2021/07/29 07:55:30;;;;;;;35.65;6.85;;;;;;;49.77;19.44;100386.56;5059416;28;20057;-80
2021/07/29 07:58:35;;;;;;;15.27;5.80;;;;;;;50.37;19.83;100386.13;5037315;28;20056;-80
2021/07/29 08:01:40;;;;;;;11.60;5.28;;;;;;;51.45;18.45;100383.94;5037300;28;20396;-80
2021/07/29 08:04:45;;;;;;;15.55;5.97;;;;;;;50.19;19.16;100382.34;5036971;28;20496;-80
2021/07/29 08:07:49;;;;;;;31.50;7.10;;;;;;;50.55;19.47;100382.09;5037216;28;20060;-80
2021/07/29 08:10:54;;;;;;;25.98;7.13;;;;;;;49.93;19.42;100384.25;5037234;28;20124;-79
2021/07/29 08:13:58;;;;;;;23.70;6.68;;;;;;;50.04;19.51;100382.28;5036237;28;20385;-80
2021/07/29 08:17:04;;;;;;;12.82;6.00;;;;;;;50.37;19.58;100377.56;5036999;28;20048;-80
